Main page
METAR-TAF:

METAR-TAF

Airports :

Yap International Airport

Yap, Micronesia

latitude: 09-29N, longitude: 138-05E, elevation: 28 m

Current weather observation

The report was made 37 minutes ago, at 12:51 UTC
Wind 4 kt from variable directions
Temperature 27°C
Humidity 84%
Pressure 1011 hPa
Visibility: 19.3 km
Few clouds at a height of 1800 ft
Scattered clouds at a height of 13000 ft
Broken clouds at a height of 30000 ft

METAR: PTYA 201251Z VRB04KT 12SM FEW018 SCT130 BKN300 27/24 A2985 RMK SLP110 T02690237

Time: 23:28 (13:28 UTC)

Forecast

The report was made 1 hour and 58 minutes ago, at 11:30 UTC
Forecast valid from 20 at 12 UTC to 21 at 12 UTC
Wind 10 kt from the East/Northeast
Visibility: 10 km
Few clouds at a height of 1800 ft
Few clouds at a height of 5000 ft

TAF: PTYA 201130Z 2012/2112 07010KT P6SM FEW018 FEW050

Weather observations and forecasts of more than 4000 airports (METAR and TAF reports).

The available stations are represented by yellow and red dots on the map.

Hover mouse over dot to see the name of the station.

Then click to see weather observations and forecasts.

To change the map : click on the green buttons with a black cross to zoom in, on the green button with a dash to zoom out, or on the green arrows for adjacent maps.


METAR-TAF: